Time;durP1;ratioP1;P1;durP2;ratioP2;P2;SDS_P1;SDS_P2;PMS_P1;PMS_P2;Temp;Humidity;BMP_temperature;BMP_pressure;BME280_temperature;BME280_humidity;BME280_pressure;Samples;Min_cycle;Max_cycle;Signal;HPM_P1;HPM_P2
2022/12/20 00:02:06;;;;;;;7.80;4.57;;;;;;;-148.88;100.00;76246.47;5015773;28;20484;-84
2022/12/20 00:04:32;;;;;;;7.03;4.45;;;;;;;-148.88;100.00;76248.50;5016684;28;20377;-84
2022/12/20 00:06:57;;;;;;;7.72;4.53;;;;;;;-148.88;100.00;76256.63;5016441;28;20522;-82
2022/12/20 00:09:24;;;;;;;7.63;4.30;;;;;;;-148.88;100.00;76248.50;5014657;28;20033;-83
2022/12/20 00:11:49;;;;;;;8.13;4.30;;;;;;;-148.88;100.00;76232.25;5014636;28;20524;-83
2022/12/20 00:14:15;;;;;;;9.90;3.92;;;;;;;-148.88;100.00;76228.19;5015249;28;20060;-83
2022/12/20 00:16:40;;;;;;;6.45;4.25;;;;;;;-148.88;100.00;76224.13;5014849;28;20021;-84
2022/12/20 00:19:06;;;;;;;6.10;4.13;;;;;;;-148.88;100.00;76222.09;5014640;28;20026;-83
2022/12/20 00:21:34;;;;;;;6.13;3.92;;;;;;;-148.88;100.00;76216.00;5014816;28;20423;-84
2022/12/20 00:23:59;;;;;;;9.15;4.60;;;;;;;-148.88;100.00;76193.66;5014090;28;20493;-81
2022/12/20 00:26:36;;;;;;;7.05;4.03;;;;;;;-148.88;100.00;76183.50;5016987;28;20034;-84
2022/12/20 00:29:02;;;;;;;9.23;3.92;;;;;;;-148.88;100.00;76175.38;5016122;28;20476;-85
2022/12/20 00:31:30;;;;;;;8.13;3.63;;;;;;;-148.88;100.00;76163.19;5015386;28;20030;-82
2022/12/20 00:33:56;;;;;;;8.43;4.13;;;;;;;-148.88;100.00;76169.28;5014592;28;20030;-84
2022/12/20 00:36:26;;;;;;;6.55;3.42;;;;;;;-148.88;100.00;76163.19;5014446;28;20018;-83
2022/12/20 00:38:54;;;;;;;8.05;4.03;;;;;;;-148.88;100.00;76161.16;5016105;28;20117;-84
2022/12/20 00:41:25;;;;;;;10.00;4.32;;;;;;;-148.88;100.00;76163.19;5014328;28;20018;-83
2022/12/20 00:43:52;;;;;;;8.70;4.10;;;;;;;-148.88;100.00;76155.06;5015957;28;20029;-82
2022/12/20 00:46:18;;;;;;;8.13;4.20;;;;;;;-148.88;100.00;76155.06;5015210;28;20029;-83
2022/12/20 00:48:44;;;;;;;8.02;4.20;;;;;;;-148.88;100.00;76148.97;5015921;28;20045;-85
2022/12/20 00:51:18;;;;;;;7.97;4.60;;;;;;;-148.88;100.00;76151.00;5015734;28;20033;-84
2022/12/20 00:53:44;;;;;;;8.95;4.22;;;;;;;-148.88;100.00;76142.88;5013854;28;20064;-85
2022/12/20 00:56:10;;;;;;;8.70;4.40;;;;;;;-148.88;100.00;76140.84;5015677;28;20057;-84
2022/12/20 00:58:37;;;;;;;7.68;4.45;;;;;;;-148.88;100.00;76138.81;5015388;28;20030;-84
2022/12/20 01:01:04;;;;;;;7.93;4.47;;;;;;;-148.88;100.00;76140.84;5014937;28;20415;-85
2022/12/20 01:03:30;;;;;;;9.43;4.07;;;;;;;-148.88;100.00;76128.66;5012796;28;20033;-83
2022/12/20 01:05:58;;;;;;;8.40;4.22;;;;;;;-148.88;100.00;76118.47;5012633;28;20022;-83
2022/12/20 01:08:26;;;;;;;13.35;4.18;;;;;;;-148.88;100.00;76116.44;5012934;28;20457;-83
2022/12/20 01:10:58;;;;;;;7.72;3.92;;;;;;;-148.88;100.00;76114.41;5013934;28;20033;-82
2022/12/20 01:13:23;;;;;;;8.73;4.60;;;;;;;-148.88;100.00;76106.28;5012517;28;20030;-83
2022/12/20 01:15:49;;;;;;;7.35;4.25;;;;;;;-148.88;100.00;76108.31;5014855;28;20033;-82
2022/12/20 01:18:14;;;;;;;7.75;4.30;;;;;;;-148.88;100.00;76092.06;5012610;28;20042;-83
2022/12/20 01:20:39;;;;;;;8.90;4.22;;;;;;;-148.88;100.00;76090.03;5013384;28;20369;-81
2022/12/20 01:23:05;;;;;;;7.70;3.55;;;;;;;-148.88;100.00;76090.03;5012393;28;20026;-82
2022/12/20 01:25:30;;;;;;;7.85;4.18;;;;;;;-148.88;100.00;76085.97;5013324;28;20112;-83
2022/12/20 01:27:55;;;;;;;7.00;4.10;;;;;;;-148.88;100.00;76096.13;5012510;28;20026;-83
2022/12/20 01:30:20;;;;;;;9.80;4.25;;;;;;;-148.88;100.00;76090.03;5012166;28;20501;-82
2022/12/20 01:32:46;;;;;;;6.65;4.00;;;;;;;-148.88;100.00;76085.97;5012698;28;20029;-83
2022/12/20 01:35:11;;;;;;;7.10;4.05;;;;;;;-148.88;100.00;76079.88;5012364;28;20100;-83
2022/12/20 01:37:36;;;;;;;7.63;4.97;;;;;;;-148.88;100.00;76077.84;5013894;28;20025;-83
2022/12/20 01:40:02;;;;;;;7.03;4.13;;;;;;;-148.88;100.00;76081.91;5019879;28;20049;-84
2022/12/20 01:42:27;;;;;;;6.93;4.13;;;;;;;-148.88;100.00;76077.84;5018505;28;20088;-84
2022/12/20 01:44:55;;;;;;;7.55;3.60;;;;;;;-148.88;100.00;76073.78;5017820;28;20097;-84
2022/12/20 01:47:21;;;;;;;7.32;3.83;;;;;;;-148.88;100.00;76077.84;5018795;28;20053;-84
2022/12/20 01:49:51;;;;;;;6.47;3.70;;;;;;;-148.88;100.00;76085.97;5016454;28;20029;-85
2022/12/20 01:52:35;;;;;;;7.00;3.80;;;;;;;-148.88;100.00;76077.84;5018314;28;20022;-86
2022/12/20 01:55:08;;;;;;;6.10;3.70;;;;;;;-148.88;100.00;76081.91;5019481;28;20022;-85
2022/12/20 01:57:41;;;;;;;6.07;3.33;;;;;;;-148.88;100.00;76088.00;5019162;28;20034;-86
2022/12/20 02:00:08;;;;;;;6.50;3.55;;;;;;;-148.88;100.00;76079.88;5017531;28;20029;-85
2022/12/20 02:02:34;;;;;;;6.57;3.58;;;;;;;-148.88;100.00;76075.81;5016442;28;20510;-82
2022/12/20 02:05:00;;;;;;;6.97;3.20;;;;;;;-148.88;100.00;76071.75;5018901;28;20030;-85
2022/12/20 02:07:29;;;;;;;5.63;3.25;;;;;;;-148.88;100.00;76069.72;5019482;28;20060;-85
2022/12/20 02:09:57;;;;;;;6.18;3.85;;;;;;;-148.88;100.00;76065.66;5020803;28;20034;-85
2022/12/20 02:12:24;;;;;;;6.10;3.58;;;;;;;-148.88;100.00;76053.47;5019381;28;20018;-83
2022/12/20 02:15:05;;;;;;;8.00;3.45;;;;;;;-148.88;100.00;76049.41;5020191;28;20030;-85
2022/12/20 02:18:02;;;;;;;7.45;3.78;;;;;;;-148.88;100.00;76035.19;5018697;28;20033;-84
2022/12/20 02:20:58;;;;;;;5.60;3.10;;;;;;;-148.88;100.00;76025.03;5018197;28;20032;-84
2022/12/20 02:24:09;;;;;;;6.75;3.17;;;;;;;-148.88;100.00;76020.97;5020172;28;20547;-84
2022/12/20 02:27:09;;;;;;;6.50;3.10;;;;;;;-148.88;100.00;76012.84;5016388;28;20489;-82
2022/12/20 02:29:52;;;;;;;5.80;3.30;;;;;;;-148.88;100.00;76004.72;5016713;28;20491;-83
2022/12/20 02:32:29;;;;;;;8.07;2.90;;;;;;;-148.88;99.96;75994.56;5015906;28;20388;-83
2022/12/20 02:34:55;;;;;;;6.53;3.33;;;;;;;-148.88;99.67;75984.41;5015778;28;20070;-83
2022/12/20 02:37:21;;;;;;;4.70;2.70;;;;;;;-148.88;99.88;75984.41;5016584;28;20053;-83
2022/12/20 02:39:47;;;;;;;5.43;2.72;;;;;;;-148.88;99.59;75976.28;5015240;28;20022;-82
2022/12/20 02:42:19;;;;;;;5.55;3.38;;;;;;;-148.88;99.76;75976.28;5015101;28;20018;-83
2022/12/20 02:45:14;;;;;;;6.15;2.65;;;;;;;-148.88;98.94;75964.09;5016836;28;20133;-82
2022/12/20 02:47:54;;;;;;;8.48;2.95;;;;;;;-148.88;98.66;75964.09;5015339;28;20026;-84
2022/12/20 02:50:29;;;;;;;5.43;2.90;;;;;;;-148.88;98.77;75960.03;5015393;28;20024;-84
2022/12/20 02:52:55;;;;;;;4.32;2.72;;;;;;;-148.88;98.54;75960.03;5016447;28;20477;-83
2022/12/20 02:55:30;;;;;;;4.97;2.90;;;;;;;-148.88;98.63;75964.09;5015296;28;20117;-84
2022/12/20 02:58:06;;;;;;;5.20;2.67;;;;;;;-148.88;99.03;75976.28;5016468;28;20112;-83
2022/12/20 03:00:39;;;;;;;6.13;3.60;;;;;;;-148.88;98.87;75968.16;5015023;28;20113;-84
2022/12/20 03:03:23;;;;;;;7.32;2.75;;;;;;;-148.88;98.58;75962.06;5016012;28;20076;-83
2022/12/20 03:05:57;;;;;;;;;;;;;;;-148.88;98.94;75962.06;5015289;28;20026;-81
2022/12/20 03:08:26;;;;;;;;;;;;;;;-148.88;98.74;75951.91;5015745;28;19928;-83
2022/12/20 03:10:53;;;;;;;4.63;2.20;;;;;;;-148.88;98.67;75951.91;5016228;28;19913;-83
2022/12/20 03:13:19;;;;;;;4.68;2.63;;;;;;;-148.88;98.88;75955.97;5014641;28;20546;-85
2022/12/20 03:15:45;;;;;;;5.50;3.15;;;;;;;-148.88;98.42;75947.84;5015131;28;20125;-83
2022/12/20 03:18:11;;;;;;;5.63;2.90;;;;;;;-148.88;98.31;75951.91;5014713;28;20049;-83
2022/12/20 03:20:37;;;;;;;6.78;2.90;;;;;;;-148.88;98.61;75951.91;5014753;28;20014;-84
2022/12/20 03:23:03;;;;;;;4.47;2.63;;;;;;;-148.88;99.21;75964.09;5019200;28;20026;-85
2022/12/20 03:25:28;;;;;;;6.80;3.63;;;;;;;-148.88;99.27;75968.16;5017650;28;20028;-85
2022/12/20 03:27:54;;;;;;;4.78;2.97;;;;;;;-148.88;99.51;75968.16;5017271;28;20022;-85
2022/12/20 03:30:19;;;;;;;5.40;2.97;;;;;;;-148.88;99.50;75958.00;5016898;28;20080;-84
2022/12/20 03:32:44;;;;;;;4.55;2.78;;;;;;;-148.88;98.97;75955.97;5015319;28;20061;-86
2022/12/20 03:35:10;;;;;;;5.80;2.70;;;;;;;-148.88;99.23;75968.16;5014953;28;20026;-85
2022/12/20 03:37:35;;;;;;;6.35;2.80;;;;;;;-148.88;98.97;75968.16;5014361;28;20030;-84
2022/12/20 03:40:00;;;;;;;5.72;2.97;;;;;;;-148.88;98.97;75968.16;5014409;28;20049;-84
2022/12/20 03:42:26;;;;;;;5.18;3.00;;;;;;;-148.88;98.92;75970.19;5014452;28;20072;-84
2022/12/20 03:44:51;;;;;;;6.18;3.35;;;;;;;-148.88;99.38;75974.25;5014214;28;20058;-85
2022/12/20 03:47:16;;;;;;;5.00;2.97;;;;;;;-148.88;99.08;75974.25;5015457;28;20029;-85
2022/12/20 03:49:42;;;;;;;4.88;2.67;;;;;;;-148.88;98.77;75976.28;5014913;28;20097;-86
2022/12/20 03:52:11;;;;;;;7.45;2.88;;;;;;;-148.88;98.88;75976.28;5022347;28;20025;-86
2022/12/20 03:54:36;;;;;;;6.30;3.03;;;;;;;-148.88;99.14;75984.41;5019297;28;20038;-87
2022/12/20 03:57:02;;;;;;;4.20;2.78;;;;;;;-148.88;98.92;75980.34;5020054;28;20102;-86
2022/12/20 03:59:27;;;;;;;4.70;2.97;;;;;;;-148.88;99.51;75984.41;5020060;28;20053;-87
2022/12/20 04:01:53;;;;;;;7.97;3.40;;;;;;;-148.88;99.21;75992.53;5017871;28;20026;-86
2022/12/20 04:04:18;;;;;;;6.10;3.38;;;;;;;-148.88;99.42;75990.50;5019012;28;20081;-87
2022/12/20 04:06:43;;;;;;;4.68;2.90;;;;;;;-148.88;99.74;75996.59;5018693;28;20021;-86
2022/12/20 04:09:09;;;;;;;5.47;3.20;;;;;;;-148.88;99.45;76000.66;5016056;28;20100;-84
2022/12/20 04:11:35;;;;;;;5.60;2.90;;;;;;;-148.88;100.00;76004.72;5014394;28;20032;-81
2022/12/20 04:14:00;;;;;;;8.38;3.08;;;;;;;-148.88;100.00;76008.78;5014859;28;20034;-85
2022/12/20 04:16:28;;;;;;;8.05;3.13;;;;;;;-148.88;100.00;76016.91;5014622;28;20117;-85
2022/12/20 04:18:53;;;;;;;4.82;3.00;;;;;;;-148.88;100.00;76010.81;5015136;28;20445;-83
2022/12/20 04:21:32;;;;;;;5.18;3.20;;;;;;;-148.88;100.00;76020.97;5014814;28;20021;-85
2022/12/20 04:24:00;;;;;;;6.72;3.20;;;;;;;-148.88;100.00;76020.97;5014928;28;20026;-84
2022/12/20 04:26:31;;;;;;;6.25;3.78;;;;;;;-148.88;100.00;76037.22;5012903;28;20030;-85
2022/12/20 04:28:57;;;;;;;6.03;3.17;;;;;;;-148.88;100.00;76053.47;5013367;28;20048;-84
2022/12/20 04:31:22;;;;;;;5.43;3.35;;;;;;;-148.88;100.00;76045.34;5014437;28;20464;-84
2022/12/20 04:33:48;;;;;;;6.57;3.70;;;;;;;-148.88;100.00;76061.59;5015546;28;20037;-85
2022/12/20 04:36:17;;;;;;;5.50;3.22;;;;;;;-148.88;100.00;76071.75;5016722;28;20029;-85
2022/12/20 04:38:43;;;;;;;5.22;3.33;;;;;;;-148.88;100.00;76071.75;5014244;28;20022;-85
2022/12/20 04:41:08;;;;;;;6.53;3.75;;;;;;;-148.88;100.00;76079.88;5013497;28;20128;-84
2022/12/20 04:43:34;;;;;;;4.82;3.50;;;;;;;-148.88;100.00;76065.66;5016990;28;20040;-85
2022/12/20 04:46:00;;;;;;;6.32;3.85;;;;;;;-148.88;100.00;76077.84;5015171;28;20072;-85
2022/12/20 04:48:26;;;;;;;7.28;3.58;;;;;;;-148.88;100.00;76088.00;4996656;28;20123;-85
2022/12/20 04:50:53;;;;;;;5.68;3.30;;;;;;;-148.88;100.00;76075.81;5013016;28;20030;-84
2022/12/20 04:56:04;;;;;;;5.40;3.63;;;;;;;-148.88;100.00;76071.75;5015108;28;20033;-85
2022/12/20 04:58:30;;;;;;;7.90;3.88;;;;;;;-148.88;100.00;76073.78;5013429;28;20022;-85
2022/12/20 05:00:56;;;;;;;6.70;3.67;;;;;;;-148.88;100.00;76061.59;5013103;28;20037;-85
2022/12/20 05:03:24;;;;;;;7.13;4.00;;;;;;;-148.88;100.00;76069.72;5012899;28;20018;-85
2022/12/20 05:05:49;;;;;;;9.25;4.38;;;;;;;-148.88;100.00;76073.78;5012725;28;20558;-84
2022/12/20 05:08:15;;;;;;;6.80;3.72;;;;;;;-148.88;100.00;76073.78;5016892;28;20038;-84
2022/12/20 05:10:41;;;;;;;6.85;4.07;;;;;;;-148.88;100.00;76067.69;5016859;28;20140;-84
2022/12/20 05:13:07;;;;;;;6.28;3.70;;;;;;;-148.88;100.00;76081.91;5014960;28;20026;-84
2022/12/20 05:15:32;;;;;;;5.53;4.00;;;;;;;-148.88;100.00;76069.72;5015984;28;20476;-85
2022/12/20 05:17:58;;;;;;;7.65;4.22;;;;;;;-148.88;100.00;76073.78;5016940;28;20033;-86
2022/12/20 05:20:29;;;;;;;7.18;3.50;;;;;;;-148.88;100.00;76077.84;5012353;28;20026;-86
2022/12/20 05:26:16;;;;;;;7.07;3.88;;;;;;;-148.88;100.00;76053.47;5014288;28;20029;-83
2022/12/20 05:28:35;;;;;;;6.75;3.85;;;;;;;-148.88;100.00;76053.47;5014107;28;20026;-84
2022/12/20 05:31:01;;;;;;;7.40;3.88;;;;;;;-148.88;100.00;76065.66;5012779;28;20034;-83
2022/12/20 05:33:27;;;;;;;9.43;4.15;;;;;;;-148.88;100.00;76053.47;5012484;28;20065;-84
2022/12/20 05:35:53;;;;;;;9.65;4.13;;;;;;;-148.88;100.00;76055.50;5012551;28;20026;-82
2022/12/20 05:38:19;;;;;;;6.63;3.80;;;;;;;-148.88;100.00;76057.53;5012225;28;20022;-85
2022/12/20 05:40:47;;;;;;;7.82;3.60;;;;;;;-148.88;100.00;76057.53;5013468;28;20044;-85
2022/12/20 05:43:14;;;;;;;6.22;4.03;;;;;;;-148.88;100.00;76057.53;5015902;28;20022;-85
2022/12/20 05:45:39;;;;;;;7.00;4.10;;;;;;;-148.88;100.00;76055.50;5013456;28;20172;-84
2022/12/20 05:48:05;;;;;;;6.85;4.00;;;;;;;-148.88;100.00;76047.38;5013291;28;20129;-83
2022/12/20 05:50:31;;;;;;;11.00;3.80;;;;;;;-148.88;100.00;76057.53;5014963;28;20175;-83
2022/12/20 05:52:56;;;;;;;8.30;3.75;;;;;;;-148.88;100.00;76055.50;5017853;28;20022;-84
2022/12/20 05:55:21;;;;;;;9.20;4.07;;;;;;;-148.88;100.00;76061.59;5018633;28;20026;-85
2022/12/20 05:57:47;;;;;;;7.47;3.58;;;;;;;-148.88;100.00;76049.41;5018429;28;20036;-85
2022/12/20 06:00:13;;;;;;;7.05;3.70;;;;;;;-148.88;100.00;76039.25;5018651;28;20014;-86
2022/12/20 06:02:39;;;;;;;6.00;3.97;;;;;;;-148.88;100.00;76037.22;5018234;28;20017;-85
2022/12/20 06:05:04;;;;;;;7.85;4.10;;;;;;;-148.88;100.00;76037.22;5017730;28;20026;-86
2022/12/20 06:07:30;;;;;;;7.10;3.88;;;;;;;-148.88;100.00;76047.38;5018604;28;20080;-86
2022/12/20 06:09:56;;;;;;;7.90;4.97;;;;;;;-148.88;100.00;76049.41;5017927;28;20076;-84
2022/12/20 06:12:22;;;;;;;9.40;3.95;;;;;;;-148.88;100.00;76049.41;5017758;28;20403;-83
2022/12/20 06:14:47;;;;;;;8.48;4.00;;;;;;;-148.88;100.00;76057.53;5103136;22;20487;-74
2022/12/20 06:17:13;;;;;;;8.15;4.43;;;;;;;-148.88;100.00;76061.59;5012678;28;20022;-75
2022/12/20 06:19:41;;;;;;;5.75;3.90;;;;;;;-148.88;100.00;76055.50;5012647;28;20025;-75
2022/12/20 06:22:09;;;;;;;7.32;4.30;;;;;;;-148.88;100.00;76063.63;5012659;28;20025;-75
2022/12/20 06:24:35;;;;;;;7.38;4.88;;;;;;;-148.88;100.00;76057.53;5012559;28;20397;-75
2022/12/20 06:27:01;;;;;;;7.13;4.25;;;;;;;-148.88;100.00;76059.56;5011309;28;20018;-75
2022/12/20 06:29:27;;;;;;;9.95;4.57;;;;;;;-148.88;100.00;76061.59;5012583;28;20026;-75
2022/12/20 06:31:53;;;;;;;7.68;4.00;;;;;;;-148.88;100.00;76061.59;5012614;28;20033;-75
2022/12/20 06:34:19;;;;;;;6.88;4.22;;;;;;;-148.88;100.00;76061.59;5011505;28;20022;-75
2022/12/20 06:36:44;;;;;;;6.30;4.18;;;;;;;-148.88;100.00;76049.41;5011306;28;20029;-75
2022/12/20 06:39:10;;;;;;;7.05;4.35;;;;;;;-148.88;100.00;76049.41;5012587;28;20071;-75
2022/12/20 06:41:35;;;;;;;8.15;4.47;;;;;;;-148.88;100.00;76049.41;5012534;28;20104;-75
2022/12/20 06:44:01;;;;;;;7.70;4.47;;;;;;;-148.88;100.00;76043.31;5012402;28;20032;-75
2022/12/20 06:46:26;;;;;;;6.78;4.00;;;;;;;-148.88;100.00;76031.13;5011244;28;20399;-75
2022/12/20 06:48:54;;;;;;;6.25;4.65;;;;;;;-148.88;100.00;76043.31;5012636;28;20026;-76
2022/12/20 06:51:19;;;;;;;10.07;4.43;;;;;;;-148.88;100.00;76037.22;5013407;28;20033;-75
2022/12/20 06:53:45;;;;;;;6.30;4.38;;;;;;;-148.88;100.00;76039.25;5016069;28;20192;-75
2022/12/20 06:56:10;;;;;;;6.10;4.22;;;;;;;-148.88;100.00;76039.25;5015734;28;20393;-75
2022/12/20 06:58:35;;;;;;;11.50;4.30;;;;;;;-148.88;100.00;76029.09;5015791;28;20037;-75
2022/12/20 07:01:01;;;;;;;8.48;4.43;;;;;;;-148.88;100.00;76033.16;5015964;28;20033;-75
2022/12/20 07:03:26;;;;;;;7.35;3.97;;;;;;;-148.88;100.00;76027.06;5015816;28;20096;-75
2022/12/20 07:05:53;;;;;;;10.15;4.90;;;;;;;-148.88;100.00;76041.28;5015695;28;20473;-75
2022/12/20 07:08:19;;;;;;;7.15;4.47;;;;;;;-148.88;100.00;76041.28;5015634;28;20068;-75
2022/12/20 07:10:45;;;;;;;7.65;4.57;;;;;;;-148.88;100.00;76037.22;5015598;28;20030;-74
2022/12/20 07:13:10;;;;;;;9.77;4.70;;;;;;;-148.88;100.00;76047.38;5015381;28;20025;-75
2022/12/20 07:15:35;;;;;;;6.13;4.20;;;;;;;-148.88;100.00;76033.16;5015739;28;20041;-75
2022/12/20 07:18:02;;;;;;;9.00;4.20;;;;;;;-148.88;100.00;76039.25;5015413;28;20112;-75
2022/12/20 07:20:27;;;;;;;8.15;4.30;;;;;;;-148.88;100.00;76035.19;5015364;28;20018;-75
2022/12/20 07:22:53;;;;;;;9.43;4.25;;;;;;;-148.88;100.00;76029.09;5015239;28;20029;-75
2022/12/20 07:25:18;;;;;;;8.52;4.20;;;;;;;-148.88;100.00;76031.13;5015412;28;20128;-75
2022/12/20 07:27:48;;;;;;;8.32;4.78;;;;;;;-148.88;100.00;76023.00;5015195;28;20030;-75
2022/12/20 07:30:14;;;;;;;8.40;4.45;;;;;;;-148.88;100.00;76025.03;5015403;28;20030;-75
2022/12/20 07:32:39;;;;;;;10.15;3.90;;;;;;;-148.88;100.00;76029.09;5015175;28;20080;-75
2022/12/20 07:35:05;;;;;;;9.98;4.68;;;;;;;-148.88;100.00;76012.84;5015232;28;20029;-75
2022/12/20 07:37:31;;;;;;;9.32;4.60;;;;;;;-148.88;100.00;76020.97;5015051;28;20105;-75
2022/12/20 07:39:56;;;;;;;10.77;4.97;;;;;;;-148.88;100.00;76020.97;5014987;28;20476;-75
2022/12/20 07:42:21;;;;;;;8.52;4.30;;;;;;;-148.88;100.00;76008.78;5014835;28;20323;-75
2022/12/20 07:44:46;;;;;;;7.50;4.28;;;;;;;-148.88;100.00;76020.97;5014849;28;20022;-74
2022/12/20 07:47:12;;;;;;;9.13;4.55;;;;;;;-148.88;100.00;76029.09;5013745;28;20026;-74
2022/12/20 07:49:37;;;;;;;7.45;4.30;;;;;;;-148.88;100.00;76037.22;5014752;28;20026;-74
2022/12/20 07:52:04;;;;;;;8.30;4.40;;;;;;;-148.88;100.00;76037.22;5014753;28;20026;-74
2022/12/20 07:54:37;;;;;;;8.23;5.15;;;;;;;-148.88;100.00;76041.28;5013322;28;20021;-74
2022/12/20 07:57:18;;;;;;;9.73;4.95;;;;;;;-148.88;100.00;76047.38;5014643;28;20022;-74
2022/12/20 07:59:47;;;;;;;10.25;5.25;;;;;;;-148.88;100.00;76041.28;5014888;28;20096;-74
2022/12/20 08:02:21;;;;;;;9.50;4.72;;;;;;;-148.88;100.00;76035.19;5013548;28;20029;-74
2022/12/20 08:04:47;;;;;;;9.70;4.60;;;;;;;-148.88;100.00;76016.91;5014479;28;20064;-74
2022/12/20 08:07:12;;;;;;;9.30;4.80;;;;;;;-148.88;100.00;76029.09;5014948;28;20030;-74
2022/12/20 08:09:42;;;;;;;7.53;4.85;;;;;;;-148.88;100.00;76029.09;5014389;28;20022;-74
2022/12/20 08:12:11;;;;;;;8.40;4.90;;;;;;;-148.88;100.00;76025.03;5013031;28;20530;-74
2022/12/20 08:14:37;;;;;;;10.57;5.30;;;;;;;-148.88;100.00;76012.84;5014225;28;20104;-74
2022/12/20 08:17:02;;;;;;;9.82;5.18;;;;;;;-148.88;100.00;76010.81;5013064;28;20448;-74
2022/12/20 08:19:30;;;;;;;7.80;4.85;;;;;;;-148.88;100.00;76004.72;5014489;28;20025;-74
2022/12/20 08:21:55;;;;;;;7.85;4.70;;;;;;;-148.88;100.00;76000.66;5012935;28;20025;-74
2022/12/20 08:24:20;;;;;;;8.75;4.53;;;;;;;-148.88;100.00;75996.59;5014429;28;20109;-74
2022/12/20 08:26:46;;;;;;;9.55;4.85;;;;;;;-148.88;100.00;75988.47;5014440;28;20030;-74
2022/12/20 08:29:11;;;;;;;11.90;4.93;;;;;;;-148.88;100.00;75976.28;5014015;28;20022;-74
2022/12/20 08:31:43;;;;;;;9.23;4.78;;;;;;;-148.88;100.00;75966.13;5014181;28;20030;-74
2022/12/20 08:34:09;;;;;;;6.90;4.15;;;;;;;-148.88;100.00;75947.84;5013962;28;20033;-75
2022/12/20 08:36:35;;;;;;;7.13;4.70;;;;;;;-148.88;100.00;75966.13;5014050;28;20030;-75
2022/12/20 08:39:04;;;;;;;10.10;5.07;;;;;;;-148.88;100.00;75966.13;5014564;28;20130;-74
2022/12/20 08:41:30;;;;;;;8.40;4.80;;;;;;;-148.88;100.00;75947.84;5014047;28;20021;-74
2022/12/20 08:43:55;;;;;;;9.02;4.90;;;;;;;-148.88;100.00;75943.78;5012969;28;20026;-75
2022/12/20 08:46:21;;;;;;;11.30;5.25;;;;;;;-148.88;100.00;75939.72;5014318;28;20022;-73
2022/12/20 08:48:46;;;;;;;9.15;4.75;;;;;;;-148.88;100.00;75937.69;5013754;28;20071;-73
2022/12/20 08:51:11;;;;;;;10.13;5.05;;;;;;;-148.88;100.00;75923.47;5012326;28;20029;-73
2022/12/20 08:53:37;;;;;;;7.85;4.45;;;;;;;-148.88;100.00;75919.41;5013609;28;20536;-74
2022/12/20 08:56:13;;;;;;;9.00;5.53;;;;;;;-148.88;100.00;75917.38;5013637;28;20096;-74
2022/12/20 08:58:40;;;;;;;6.78;4.05;;;;;;;-148.88;100.00;75911.28;5013657;28;20026;-73
2022/12/20 09:01:08;;;;;;;8.52;4.25;;;;;;;-148.88;100.00;75915.34;5012518;28;20013;-74
2022/12/20 09:03:35;;;;;;;9.15;4.20;;;;;;;-148.88;100.00;75903.16;5013749;28;20145;-74
2022/12/20 09:06:05;;;;;;;8.00;4.80;;;;;;;-148.88;100.00;75901.13;5013562;28;20056;-74
2022/12/20 09:08:31;;;;;;;6.72;3.92;;;;;;;-148.88;100.00;75899.09;5013711;28;20388;-74
2022/12/20 09:11:10;;;;;;;8.60;5.07;;;;;;;-148.88;100.00;75903.16;5013556;28;20097;-74
2022/12/20 09:13:36;;;;;;;8.32;4.00;;;;;;;-148.88;100.00;75895.03;5013011;28;20053;-73
2022/12/20 09:16:04;;;;;;;7.28;4.10;;;;;;;-148.88;100.00;75899.09;5013241;28;20058;-74
2022/12/20 09:18:30;;;;;;;6.75;4.00;;;;;;;-148.88;100.00;75868.63;5013251;28;20430;-74
2022/12/20 09:21:02;;;;;;;6.53;4.05;;;;;;;-148.88;100.00;75874.72;5013457;28;20032;-74
2022/12/20 09:23:29;;;;;;;8.52;4.20;;;;;;;-148.88;100.00;75864.56;5013339;28;20056;-74
2022/12/20 09:25:55;;;;;;;7.15;4.28;;;;;;;-148.88;100.00;75862.53;5013146;28;20453;-74
2022/12/20 09:28:21;;;;;;;7.35;3.80;;;;;;;-148.88;100.00;75858.47;5013411;28;20030;-74
2022/12/20 09:30:47;;;;;;;7.05;4.38;;;;;;;-148.88;99.97;75856.44;5012996;28;20053;-74
2022/12/20 09:33:12;;;;;;;8.60;4.28;;;;;;;-148.88;100.00;75858.47;5013223;28;20026;-74
2022/12/20 09:35:45;;;;;;;5.65;3.90;;;;;;;-148.88;100.00;75842.22;5011797;28;20153;-74
2022/12/20 09:38:11;;;;;;;7.80;3.65;;;;;;;-148.88;99.83;75830.03;5013641;28;20021;-74
2022/12/20 09:40:37;;;;;;;5.82;3.88;;;;;;;-148.88;99.60;75811.75;5013149;28;20393;-74
2022/12/20 09:43:04;;;;;;;7.50;4.03;;;;;;;-148.88;98.63;75805.66;5013140;28;20392;-74
2022/12/20 09:45:34;;;;;;;6.45;4.03;;;;;;;-148.88;98.48;75799.56;5011866;28;20113;-74
2022/12/20 09:47:59;;;;;;;5.45;3.20;;;;;;;-148.88;98.31;75789.41;5013447;28;20112;-74
2022/12/20 09:50:44;;;;;;;6.95;3.85;;;;;;;-148.88;97.66;75775.19;5012831;28;20109;-74
2022/12/20 09:53:37;;;;;;;6.50;3.70;;;;;;;-148.88;96.97;75748.78;5013087;28;20109;-74
2022/12/20 09:56:18;;;;;;;5.10;3.25;;;;;;;-148.88;95.92;75730.50;5012952;28;20030;-74
2022/12/20 09:58:56;;;;;;;7.55;3.65;;;;;;;-148.88;95.21;75714.25;5013075;28;20107;-73
2022/12/20 10:01:25;;;;;;;5.38;3.72;;;;;;;-148.88;94.16;75720.34;5011549;28;20022;-74
2022/12/20 10:03:50;;;;;;;6.57;3.13;;;;;;;-148.88;93.50;75722.38;5012742;28;20026;-74
2022/12/20 10:06:21;;;;;;;8.60;4.00;;;;;;;-148.88;93.99;75724.41;5013026;28;20017;-74
2022/12/20 10:08:58;;;;;;;8.57;3.97;;;;;;;-148.88;93.31;75712.22;5013007;28;20439;-73
2022/12/20 10:11:56;;;;;;;9.05;4.45;;;;;;;-148.88;92.96;75714.25;5012956;28;20052;-74
2022/12/20 10:15:07;;;;;;;9.80;5.30;;;;;;;-148.88;93.34;75712.22;5012696;28;20030;-74
2022/12/20 10:17:38;;;;;;;7.63;4.93;;;;;;;-148.88;93.09;75724.41;4989701;28;20041;-74
2022/12/20 10:20:23;;;;;;;8.65;5.18;;;;;;;-148.88;93.04;75724.41;5012565;28;20473;-74
2022/12/20 10:23:16;;;;;;;7.28;4.72;;;;;;;-148.88;93.78;75724.41;5012570;28;20100;-74
2022/12/20 10:25:42;;;;;;;5.85;3.55;;;;;;;-148.88;93.65;75736.59;5013008;28;20121;-74
2022/12/20 10:28:14;;;;;;;7.28;4.13;;;;;;;-148.88;93.88;75740.66;5016258;28;20053;-74
2022/12/20 10:30:40;;;;;;;7.95;4.10;;;;;;;-148.88;93.58;75742.69;5016177;28;20041;-74
2022/12/20 10:33:17;;;;;;;6.10;3.63;;;;;;;-148.88;93.80;75736.59;5016392;28;20046;-74
2022/12/20 10:35:43;;;;;;;5.70;3.72;;;;;;;-148.88;93.23;75736.59;5016439;28;20498;-74
2022/12/20 10:38:16;;;;;;;5.03;3.70;;;;;;;-148.88;93.53;75740.66;5016396;28;20100;-74
2022/12/20 10:41:05;;;;;;;5.88;3.95;;;;;;;-148.88;93.88;75746.75;5016289;28;20018;-74
2022/12/20 10:43:41;;;;;;;6.47;3.63;;;;;;;-148.88;93.97;75736.59;5015547;28;20042;-74
2022/12/20 10:46:07;;;;;;;8.13;3.92;;;;;;;-148.88;93.76;75730.50;5015115;28;20026;-74
2022/12/20 10:48:38;;;;;;;8.38;4.00;;;;;;;-148.88;93.36;75728.47;5014641;28;20116;-73
2022/12/20 10:51:11;;;;;;;6.53;3.47;;;;;;;-148.88;93.66;75728.47;5016699;28;20465;-75
2022/12/20 10:53:49;;;;;;;5.43;4.38;;;;;;;-148.88;93.94;75728.47;5014540;28;20030;-74
2022/12/20 10:56:23;;;;;;;5.00;3.30;;;;;;;-148.88;93.38;75718.31;5015942;28;20037;-74
2022/12/20 10:59:21;;;;;;;8.65;4.00;;;;;;;-148.88;92.56;75712.22;5016101;28;20105;-73
2022/12/20 11:01:48;;;;;;;5.53;3.63;;;;;;;-148.88;92.30;75700.03;5007687;28;20045;-74
2022/12/20 11:04:33;;;;;;;5.25;3.72;;;;;;;-148.88;92.35;75700.03;5014378;28;20049;-73
2022/12/20 11:07:01;;;;;;;6.85;3.88;;;;;;;-148.88;93.00;75700.03;5015911;28;20028;-73
2022/12/20 11:09:31;;;;;;;7.97;4.00;;;;;;;-148.88;92.74;75698.00;5014384;28;20092;-74
2022/12/20 11:12:03;;;;;;;7.25;3.97;;;;;;;-148.88;92.86;75698.00;5014181;28;20404;-74
2022/12/20 11:14:29;;;;;;;6.85;3.63;;;;;;;-148.88;93.08;75695.97;5015369;28;20034;-74
2022/12/20 11:16:58;;;;;;;7.45;3.70;;;;;;;-148.88;92.65;75700.03;5015374;28;20394;-74
2022/12/20 11:19:35;;;;;;;6.45;3.78;;;;;;;-148.88;93.20;75689.88;5015602;28;20029;-74
2022/12/20 11:22:12;;;;;;;7.22;3.40;;;;;;;-148.88;93.80;75679.72;5014060;28;20026;-73
2022/12/20 11:24:56;;;;;;;5.35;3.55;;;;;;;-148.88;94.47;75675.66;5015278;28;20061;-73
2022/12/20 11:27:27;;;;;;;;;;;;;;;-148.88;93.99;75675.66;5015965;28;20471;-73